WUH weather

Wuhan Tianhe International Airport
Wuhan, Hubei Province, China

Public forecast

Using degrees Celsius for public forecast. Weather courtesy of forecast.io.

METAR (pilot weather report)

Retrieved 2019/05/22 05:00 UTC (12 minutes ago):

ZHHH 220500Z 25003MPS 190V320 CAVOK 27/14 Q1010 NOSIG

TAF (pilot weather forecast)

Forecast is more than 12 hours old.

Retrieved 2019/05/21 00:03 UTC (1 day ago):

TAF ZHHH 211952Z 2200/2224 22003MPS 3000 BR NSC TX28/2207Z TN15/2222Z